WetterOnline ( https://www.wetteronline.de )

Wetter aktuell Papenburg

Aktuelles Wetter: Emden (5m)

6-stündlich | Neueste Meldungen
Ortszeit Temperatur Wetter
Mi, 26.06. 8:00 19.8° C wolkenlos
Mi, 26.06. 2:00 21.3° C fast wolkenlos
Di, 25.06. 20:00 31.1° C bedeckt
Di, 25.06. 14:00 31.0° C wolkenlos
Di, 25.06. 8:00 21.3° C bewölkt
Di, 25.06. 2:00 20.5° C bewölkt
Mo, 24.06. 20:00 27.1° C leicht bewölkt
Mo, 24.06. 14:00 28.1° C wolkenlos
Ortszeit Temperatur Wetter
Mi, 26.06. 10:30 19.2° C wolkig
Mi, 26.06. 10:20 19.2° C wolkig
Mi, 26.06. 10:10 20.2° C wolkig
Mi, 26.06. 10:00 20.2° C fast wolkenlos
Mi, 26.06. 9:50 20.2° C fast wolkenlos
Mi, 26.06. 9:40 20.7° C wolkenlos
Mi, 26.06. 9:30 20.8° C wolkenlos
Mi, 26.06. 9:00 20.9° C wolkenlos
Mi, 26.06. 8:30 20.1° C wolkenlos
Mi, 26.06. 8:00 19.8° C wolkenlos
Mi, 26.06. 7:30 19.2° C fast wolkenlos
Ortszeit Relative Feuchte Sichtweite
Mi, 26.06. 8:00 79% 30 km
Mi, 26.06. 2:00 86% 13 km
Di, 25.06. 20:00 63% 55 km
Di, 25.06. 14:00 43% 55 km
Di, 25.06. 8:00 63% 60 km
Di, 25.06. 2:00 64% 60 km
Mo, 24.06. 20:00 50% >70 km
Mo, 24.06. 14:00 45% >70 km
Ortszeit Relative Feuchte Sichtweite
Mi, 26.06. 10:30 84% 22 km
Mi, 26.06. 10:20 84% -
Mi, 26.06. 10:10 80% -
Mi, 26.06. 10:00 79% 30 km
Mi, 26.06. 9:50 79% -
Mi, 26.06. 9:40 77% -
Mi, 26.06. 9:30 77% 35 km
Mi, 26.06. 9:00 76% 35 km
Mi, 26.06. 8:30 78% 28 km
Mi, 26.06. 8:00 79% 30 km
Mi, 26.06. 7:30 82% 30 km
Ortszeit Niederschlagsmenge Niederschlagsart
Mi, 26.06. 8:00 0.0 l/m2 in 12 Std. -
Mi, 26.06. 2:00 0.0 l/m2 in 6 Std. -
Di, 25.06. 20:00 0.0 l/m2 in 12 Std. -
Di, 25.06. 14:00 0.0 l/m2 in 6 Std. -
Di, 25.06. 8:00 0.0 l/m2 in 12 Std. -
Di, 25.06. 2:00 0.0 l/m2 in 6 Std. -
Mo, 24.06. 20:00 0.0 l/m2 in 12 Std. -
Mo, 24.06. 14:00 0.0 l/m2 in 3 Std. -
Ortszeit Niederschlagsmenge Niederschlagsart
Mi, 26.06. 10:30 0.0 l/m2 in 1 Std. -
Mi, 26.06. 10:20 keine Meldung -
Mi, 26.06. 10:10 keine Meldung -
Mi, 26.06. 10:00 0.0 l/m2 in 1 Std. -
Mi, 26.06. 9:50 keine Meldung -
Mi, 26.06. 9:40 keine Meldung -
Mi, 26.06. 9:30 0.0 l/m2 in 1 Std. -
Mi, 26.06. 9:00 0.0 l/m2 in 1 Std. -
Mi, 26.06. 8:30 0.0 l/m2 in 1 Std. -
Mi, 26.06. 8:00 0.0 l/m2 in 1 Std. -
Mi, 26.06. 7:30 0.0 l/m2 in 1 Std. -
Ortszeit Stärke Spitze Richtung
km/h Bft. km/h Grad Sektor
Mi, 26.06. 8:00 14 3 25 320° NW
Mi, 26.06. 2:00 11 2 18 270° W
Di, 25.06. 20:00 4 1 36 100° O
Di, 25.06. 14:00 22 4 33 120° SO
Di, 25.06. 8:00 11 2 14 120° SO
Di, 25.06. 2:00 9 2 22 130° SO
Mo, 24.06. 20:00 17 3 44 100° O
Mo, 24.06. 14:00 28 4 43 100° O
Ortszeit Stärke Spitze Richtung
km/h Bft. km/h Grad Sektor
Mi, 26.06. 10:30 19 3 31 310° NW
Mi, 26.06. 10:20 19 3 - 310° NW
Mi, 26.06. 10:10 18 3 - 330° NW
Mi, 26.06. 10:00 22 4 32 310° NW
Mi, 26.06. 9:50 22 4 - 310° NW
Mi, 26.06. 9:40 18 3 - 330° NW
Mi, 26.06. 9:30 20 4 28 320° NW
Mi, 26.06. 9:00 15 3 22 320° NW
Mi, 26.06. 8:30 15 3 22 320° NW
Mi, 26.06. 8:00 14 3 25 320° NW
Mi, 26.06. 7:30 15 3 24 320° NW
Ortszeit Untergrenze Bedeckung Gattung
total tief tief mittel hoch
Mi, 26.06. 8:00 - 0/8 0/8 - - -
Mi, 26.06. 2:00 10500 m 2/8 0/8 - - -
Di, 25.06. 20:00 6000 m 8/8 8/8 - - -
Di, 25.06. 14:00 - 0/8 0/8 - - -
Di, 25.06. 8:00 6900 m 7/8 6/8 - - -
Di, 25.06. 2:00 5400 m 8/8 5/8 - - -
Mo, 24.06. 20:00 10500 m 8/8 0/8 - - -
Mo, 24.06. 14:00 - 0/8 0/8 - - -
Ortszeit Bedeckungsgrad in Achtel und Wolkenuntergrenze
Mi, 26.06. 10:30 6(300m)
Mi, 26.06. 10:20 6(300m)
Mi, 26.06. 10:10 5(330m)
Mi, 26.06. 10:00 1(420m)
Mi, 26.06. 9:50 1(420m)
Mi, 26.06. 9:40 keine Wolken
Mi, 26.06. 9:30 keine Wolken
Mi, 26.06. 9:00 keine Wolken
Mi, 26.06. 8:30 keine Wolken
Mi, 26.06. 8:00 keine Wolken
Mi, 26.06. 7:30 1(9000m)
Ortszeit Luftdruck NN (hPa) Tendenz (hPa in 3 Std.)
Mi, 26.06. 8:00 1021 + 2,0
Mi, 26.06. 2:00 1019 + 0,8
Di, 25.06. 20:00 1017 + 0,3
Di, 25.06. 14:00 1017 - 1,2
Di, 25.06. 8:00 1019 + 0,1
Di, 25.06. 2:00 1020 0,0
Mo, 24.06. 20:00 1019 - 0,6
Mo, 24.06. 14:00 1020 - 0,7
Ortszeit Luftdruck NN (hPa) Tendenz (hPa in 3 Std.)
Mi, 26.06. 10:30 1024 + 2,3
Mi, 26.06. 10:20 1024 keine Meldung
Mi, 26.06. 10:10 1023 keine Meldung
Mi, 26.06. 10:00 1023 + 2,1
Mi, 26.06. 9:50 1023 keine Meldung
Mi, 26.06. 9:40 1023 keine Meldung
Mi, 26.06. 9:30 1023 + 1,8
Mi, 26.06. 9:00 1022 + 2,0
Mi, 26.06. 8:30 1022 + 2,0
Mi, 26.06. 8:00 1021 + 2,0
Mi, 26.06. 7:30 1021 + 2,3
Ortszeit Schneehöhe (cm)
Mi, 26.06. 8:00 -
Mi, 26.06. 2:00 -
Di, 25.06. 20:00 -
Di, 25.06. 14:00 -
Di, 25.06. 8:00 -
Di, 25.06. 2:00 -
Mo, 24.06. 20:00 -
Mo, 24.06. 14:00 -
Ortszeit Schneehöhe (cm)
Mi, 26.06. 10:30 -
Mi, 26.06. 10:20 -
Mi, 26.06. 10:10 -
Mi, 26.06. 10:00 -
Mi, 26.06. 9:50 -
Mi, 26.06. 9:40 -
Mi, 26.06. 9:30 -
Mi, 26.06. 9:00 -
Mi, 26.06. 8:30 -
Mi, 26.06. 8:00 -
Mi, 26.06. 7:30 -
Link zu dieser Seite / Seite empfehlen

Das Wetter in ...